createdAt,value
2019-03-23T00:00:52.134Z,8.71
2019-03-23T00:01:52.239Z,8.76
2019-03-23T00:02:52.338Z,8.78
2019-03-23T00:03:52.532Z,8.74
2019-03-23T00:04:52.630Z,8.74
2019-03-23T00:05:52.756Z,8.64
2019-03-23T00:06:52.933Z,8.51
2019-03-23T00:07:53.035Z,8.42
2019-03-23T00:08:53.147Z,8.52
2019-03-23T00:09:53.381Z,8.49
2019-03-23T00:10:53.472Z,8.42
2019-03-23T00:11:53.719Z,8.48
2019-03-23T00:12:53.833Z,8.55
2019-03-23T00:13:54.022Z,8.51
2019-03-23T00:14:54.161Z,8.52
2019-03-23T00:15:54.412Z,8.48
2019-03-23T00:16:54.487Z,8.51
2019-03-23T00:17:54.645Z,8.42
2019-03-23T00:18:54.754Z,8.42
2019-03-23T00:19:54.862Z,8.45
2019-03-23T00:20:54.975Z,8.52
2019-03-23T00:21:55.219Z,8.36
2019-03-23T00:22:55.308Z,8.34
2019-03-23T00:23:55.521Z,8.31
2019-03-23T00:24:55.617Z,8.36
2019-03-23T00:25:55.865Z,8.49
2019-03-23T00:26:55.994Z,8.46
2019-03-23T00:27:56.077Z,8.48
2019-03-23T00:28:56.282Z,8.45
2019-03-23T00:29:56.377Z,8.51
2019-03-23T00:30:56.558Z,8.49
2019-03-23T00:31:56.801Z,8.52
2019-03-23T00:32:56.984Z,8.48
2019-03-23T00:33:57.226Z,8.61
2019-03-23T00:34:57.385Z,8.45
2019-03-23T00:35:57.566Z,8.55
2019-03-23T00:36:57.714Z,8.55
2019-03-23T00:37:57.779Z,8.55
2019-03-23T00:38:57.881Z,8.53
2019-03-23T00:39:58.147Z,8.53
2019-03-23T00:40:58.253Z,8.56
2019-03-23T00:41:58.514Z,8.66
2019-03-23T00:42:58.645Z,8.56
2019-03-23T00:43:58.774Z,8.64
2019-03-23T00:44:58.880Z,8.67
2019-03-23T00:45:58.945Z,8.66
2019-03-23T00:46:59.168Z,8.51
2019-03-23T00:47:59.383Z,8.55
2019-03-23T00:48:59.577Z,8.56
2019-03-23T00:49:59.663Z,8.55
2019-03-23T00:50:59.795Z,8.56
2019-03-23T00:51:59.942Z,8.48
2019-03-23T00:53:00.112Z,8.42
2019-03-23T00:54:00.261Z,8.52
2019-03-23T00:55:00.449Z,8.36
2019-03-23T00:56:00.512Z,8.31
2019-03-23T00:57:00.644Z,8.33
2019-03-23T00:58:00.892Z,8.34
2019-03-23T00:59:00.840Z,8.36
2019-03-23T01:00:01.013Z,8.31
2019-03-23T01:01:01.155Z,8.23
2019-03-23T01:02:01.382Z,8.15
2019-03-23T01:03:01.448Z,8.28
2019-03-23T01:04:01.667Z,8.00
2019-03-23T01:05:01.799Z,8.03
2019-03-23T01:06:01.871Z,7.98
2019-03-23T01:07:02.005Z,8.01
2019-03-23T01:08:02.083Z,7.91
2019-03-23T01:09:02.159Z,7.83
2019-03-23T01:10:02.371Z,7.79
2019-03-23T01:11:02.523Z,7.97
2019-03-23T01:12:02.652Z,7.83
2019-03-23T01:13:02.789Z,7.76
2019-03-23T01:14:02.900Z,7.83
2019-03-23T01:15:03.026Z,7.91
2019-03-23T01:16:03.162Z,7.95
2019-03-23T01:17:03.330Z,7.90
2019-03-23T01:18:03.424Z,7.88
2019-03-23T01:19:03.533Z,7.76
2019-03-23T01:20:03.630Z,7.79
2019-03-23T01:21:03.737Z,7.87
2019-03-23T01:22:03.987Z,7.72
2019-03-23T01:23:04.117Z,7.77
2019-03-23T01:24:04.361Z,7.69
2019-03-23T01:25:04.433Z,7.54
2019-03-23T01:26:04.778Z,7.66
2019-03-23T01:27:04.831Z,7.51
2019-03-23T01:28:04.962Z,7.50
2019-03-23T01:29:05.168Z,7.43
2019-03-23T01:30:05.282Z,7.53
2019-03-23T01:31:05.458Z,7.48
2019-03-23T01:32:05.480Z,7.50
2019-03-23T01:33:05.730Z,7.48
2019-03-23T01:34:05.880Z,7.35
2019-03-23T01:35:05.972Z,7.40
2019-03-23T01:36:06.084Z,7.33
2019-03-23T01:37:06.228Z,7.38
2019-03-23T01:38:06.336Z,7.36
2019-03-23T01:39:06.459Z,7.36
2019-03-23T01:40:06.584Z,7.39
2019-03-23T01:41:06.797Z,7.40
2019-03-23T01:42:06.934Z,7.40
2019-03-23T01:43:07.024Z,7.40
2019-03-23T01:44:07.135Z,7.38
2019-03-23T01:45:07.235Z,7.35
2019-03-23T01:46:07.355Z,7.35
2019-03-23T01:47:07.461Z,7.31
2019-03-23T01:48:07.590Z,7.20
2019-03-23T01:49:07.681Z,7.36
2019-03-23T01:50:07.835Z,7.28
2019-03-23T01:51:07.974Z,7.25
2019-03-23T01:52:08.096Z,7.32
2019-03-23T01:53:09.146Z,7.11
2019-03-23T01:54:08.346Z,7.14
2019-03-23T01:55:08.480Z,7.14
2019-03-23T01:56:08.603Z,7.28
2019-03-23T01:57:08.731Z,7.23
2019-03-23T01:58:08.855Z,7.32
2019-03-23T01:59:08.979Z,7.20
2019-03-23T02:00:09.086Z,7.28
2019-03-23T02:01:09.238Z,7.35
2019-03-23T02:02:09.357Z,7.36
2019-03-23T02:03:09.461Z,7.32
2019-03-23T02:04:09.550Z,7.32
2019-03-23T02:05:09.827Z,7.36
2019-03-23T02:06:09.920Z,7.23
2019-03-23T02:07:14.119Z,7.23
2019-03-23T02:08:10.175Z,7.18
2019-03-23T02:09:10.283Z,7.28
2019-03-23T02:10:10.402Z,7.28
2019-03-23T02:11:10.523Z,7.23
2019-03-23T02:12:10.632Z,7.28
2019-03-23T02:13:10.755Z,7.36
2019-03-23T02:14:10.891Z,7.28
2019-03-23T02:15:10.978Z,7.24
2019-03-23T02:16:11.091Z,7.29
2019-03-23T02:17:11.320Z,7.28
2019-03-23T02:18:11.411Z,7.11
2019-03-23T02:19:11.615Z,7.17
2019-03-23T02:20:11.864Z,7.13
2019-03-23T02:21:11.977Z,7.06
2019-03-23T02:22:12.066Z,7.03
2019-03-23T02:23:12.295Z,7.05
2019-03-23T02:24:12.404Z,7.06
2019-03-23T02:25:12.594Z,7.03
2019-03-23T02:26:12.707Z,7.14
2019-03-23T02:27:12.848Z,7.11
2019-03-23T02:28:12.988Z,7.14
2019-03-23T02:29:13.084Z,7.03
2019-03-23T02:30:13.204Z,6.99
2019-03-23T02:31:13.436Z,6.96
2019-03-23T02:32:13.520Z,6.93
2019-03-23T02:33:13.628Z,6.88
2019-03-23T02:34:13.839Z,6.99
2019-03-23T02:35:14.048Z,6.92
2019-03-23T02:36:14.268Z,6.87
2019-03-23T02:37:26.883Z,6.96
2019-03-23T02:38:14.448Z,6.88
2019-03-23T02:39:14.586Z,6.85
2019-03-23T02:40:14.693Z,6.87
2019-03-23T02:41:14.819Z,6.88
2019-03-23T02:42:14.943Z,6.92
2019-03-23T02:43:15.057Z,6.87
2019-03-23T02:44:15.208Z,6.81
2019-03-23T02:45:15.352Z,6.79
2019-03-23T02:46:15.431Z,6.77
2019-03-23T02:47:15.665Z,6.77
2019-03-23T02:48:15.750Z,6.81
2019-03-23T02:49:15.869Z,6.63
2019-03-23T02:50:16.077Z,6.59
2019-03-23T02:51:16.242Z,6.56
2019-03-23T02:52:16.405Z,6.64
2019-03-23T02:53:16.554Z,6.67
2019-03-23T02:54:16.799Z,6.72
2019-03-23T02:55:16.936Z,6.75
2019-03-23T02:56:17.048Z,6.63
2019-03-23T02:57:17.153Z,6.56
2019-03-23T02:58:17.240Z,6.66
2019-03-23T02:59:17.428Z,6.66
2019-03-23T03:00:17.594Z,6.74
2019-03-23T03:01:17.769Z,6.66
2019-03-23T03:02:17.931Z,6.66
2019-03-23T03:03:18.043Z,6.75
2019-03-23T03:04:18.164Z,6.74
2019-03-23T03:05:18.286Z,6.56
2019-03-23T03:06:18.464Z,6.56
2019-03-23T03:07:18.679Z,6.48
2019-03-23T03:08:18.794Z,6.48
2019-03-23T03:09:18.996Z,6.35
2019-03-23T03:10:19.118Z,6.52
2019-03-23T03:11:19.237Z,6.60
2019-03-23T03:12:19.439Z,6.49
2019-03-23T03:13:19.586Z,6.41
2019-03-23T03:14:19.726Z,6.46
2019-03-23T03:15:19.882Z,6.48
2019-03-23T03:16:20.077Z,6.52
2019-03-23T03:17:20.383Z,6.56
2019-03-23T03:18:20.421Z,6.39
2019-03-23T03:19:20.494Z,6.48
2019-03-23T03:20:20.683Z,6.49
2019-03-23T03:21:20.766Z,6.52
2019-03-23T03:22:21.022Z,6.57
2019-03-23T03:23:21.224Z,6.59
2019-03-23T03:24:21.341Z,6.57
2019-03-23T03:25:21.474Z,6.54
2019-03-23T03:26:21.570Z,6.57
2019-03-23T03:27:21.821Z,6.51
2019-03-23T03:28:21.933Z,6.60
2019-03-23T03:29:22.072Z,6.63
2019-03-23T03:30:22.289Z,6.52
2019-03-23T03:31:22.436Z,6.60
2019-03-23T03:32:22.586Z,6.56
2019-03-23T03:33:22.769Z,6.49
2019-03-23T03:34:22.892Z,6.49
2019-03-23T03:35:22.992Z,6.46
2019-03-23T03:36:23.093Z,6.41
2019-03-23T03:37:23.202Z,6.39
2019-03-23T03:38:23.368Z,6.46
2019-03-23T03:39:23.480Z,6.48
2019-03-23T03:40:23.625Z,6.35
2019-03-23T03:41:23.873Z,6.39
2019-03-23T03:42:24.010Z,6.35
2019-03-23T03:43:24.094Z,6.31
2019-03-23T03:44:24.246Z,6.30
2019-03-23T03:45:24.386Z,6.11
2019-03-23T03:46:24.500Z,6.04
2019-03-23T03:47:24.653Z,6.05
2019-03-23T03:48:24.801Z,6.14
2019-03-23T03:49:24.948Z,6.12
2019-03-23T03:50:25.026Z,6.19
2019-03-23T03:51:25.259Z,6.14
2019-03-23T03:52:25.405Z,5.99
2019-03-23T03:53:25.551Z,5.93
2019-03-23T03:54:25.633Z,5.99
2019-03-23T03:55:25.808Z,6.01
2019-03-23T03:56:25.980Z,5.93
2019-03-23T03:57:26.090Z,5.99
2019-03-23T03:58:26.171Z,5.94
2019-03-23T03:59:26.454Z,5.94
2019-03-23T04:00:26.569Z,6.01
2019-03-23T04:01:26.678Z,6.02
2019-03-23T04:02:26.943Z,6.01
2019-03-23T04:03:27.094Z,5.93
2019-03-23T04:04:27.182Z,6.05
2019-03-23T04:05:27.495Z,5.94
2019-03-23T04:06:27.607Z,6.08
2019-03-23T04:07:27.804Z,6.07
2019-03-23T04:08:28.100Z,6.02
2019-03-23T04:09:28.103Z,5.93
2019-03-23T04:10:28.163Z,6.07
2019-03-23T04:11:28.361Z,6.01
2019-03-23T04:12:28.440Z,6.02
2019-03-23T04:13:28.669Z,5.99
2019-03-23T04:14:28.776Z,6.08
2019-03-23T04:15:29.099Z,6.02
2019-03-23T04:16:29.112Z,5.98
2019-03-23T04:17:29.198Z,5.99
2019-03-23T04:18:29.442Z,5.99
2019-03-23T04:19:29.580Z,5.99
2019-03-23T04:20:29.705Z,6.05
2019-03-23T04:21:29.824Z,6.04
2019-03-23T04:22:29.989Z,5.98
2019-03-23T04:23:33.906Z,6.01
2019-03-23T04:24:33.033Z,6.07
2019-03-23T04:25:30.452Z,5.94
2019-03-23T04:26:30.609Z,5.94
2019-03-23T04:27:30.733Z,6.01
2019-03-23T04:28:30.881Z,5.90
2019-03-23T04:29:30.989Z,5.89
2019-03-23T04:30:31.104Z,5.86
2019-03-23T04:31:31.193Z,5.89
2019-03-23T04:32:31.364Z,5.83
2019-03-23T04:33:31.452Z,5.83
2019-03-23T04:34:31.671Z,5.91
2019-03-23T04:35:32.010Z,5.79
2019-03-23T04:36:32.040Z,5.89
2019-03-23T04:37:32.210Z,5.83
2019-03-23T04:38:32.364Z,5.82
2019-03-23T04:39:32.511Z,5.83
2019-03-23T04:40:32.632Z,5.75
2019-03-23T04:41:32.923Z,5.66
2019-03-23T04:42:32.950Z,5.64
2019-03-23T04:43:33.155Z,5.68
2019-03-23T04:44:33.288Z,5.62
2019-03-23T04:45:33.403Z,5.72
2019-03-23T04:46:33.570Z,5.69
2019-03-23T04:47:33.715Z,5.71
2019-03-23T04:48:33.823Z,5.68
2019-03-23T04:49:33.999Z,5.76
2019-03-23T04:50:34.104Z,5.61
2019-03-23T04:51:34.259Z,5.62
2019-03-23T04:52:34.377Z,5.64
2019-03-23T04:53:34.561Z,5.57
2019-03-23T04:54:34.729Z,5.53
2019-03-23T04:55:34.887Z,5.48
2019-03-23T04:56:35.048Z,5.48
2019-03-23T04:57:35.195Z,5.44
2019-03-23T04:58:35.402Z,5.38
2019-03-23T04:59:37.771Z,5.44
2019-03-23T05:00:37.292Z,5.39
2019-03-23T05:01:37.487Z,5.35
2019-03-23T05:02:35.922Z,5.32
2019-03-23T05:03:36.091Z,5.33
2019-03-23T05:04:36.253Z,5.36
2019-03-23T05:05:36.406Z,5.33
2019-03-23T05:06:36.563Z,5.36
2019-03-23T05:07:40.160Z,5.33
2019-03-23T05:08:38.944Z,5.41
2019-03-23T05:09:40.025Z,5.41
2019-03-23T05:10:39.686Z,5.43
2019-03-23T05:11:40.128Z,5.57
2019-03-23T05:12:40.570Z,5.56
2019-03-23T05:13:41.187Z,5.51
2019-03-23T05:14:37.972Z,5.48
2019-03-23T05:15:39.790Z,5.59
2019-03-23T05:16:38.391Z,5.41
2019-03-23T05:17:38.391Z,5.43
2019-03-23T05:18:38.753Z,5.44
2019-03-23T05:19:38.787Z,5.56
2019-03-23T05:20:38.950Z,5.56
2019-03-23T05:21:39.076Z,5.64
2019-03-23T05:22:40.847Z,5.50
2019-03-23T05:23:40.413Z,5.46
2019-03-23T05:24:41.407Z,5.43
2019-03-23T05:25:41.677Z,5.38
2019-03-23T05:26:42.203Z,5.44
2019-03-23T05:27:41.391Z,5.43
2019-03-23T05:28:41.759Z,5.36
2019-03-23T05:29:42.858Z,5.36
2019-03-23T05:30:41.796Z,5.33
2019-03-23T05:31:42.772Z,5.29
2019-03-23T05:32:42.591Z,5.26
2019-03-23T05:33:42.835Z,5.26
2019-03-23T05:34:41.996Z,5.36
2019-03-23T05:35:43.052Z,5.33
2019-03-23T05:36:42.970Z,5.32
2019-03-23T05:37:42.884Z,5.43
2019-03-23T05:38:44.645Z,5.44
2019-03-23T05:39:42.285Z,5.46
2019-03-23T05:40:42.895Z,5.47
2019-03-23T05:41:42.680Z,5.44
2019-03-23T05:42:43.943Z,5.51
2019-03-23T05:43:43.531Z,5.51
2019-03-23T05:44:44.978Z,5.56
2019-03-23T05:45:44.986Z,5.64
2019-03-23T05:46:43.219Z,5.68
2019-03-23T05:47:43.440Z,5.68
2019-03-23T05:48:43.646Z,5.71
2019-03-23T05:49:43.754Z,5.73
2019-03-23T05:50:43.944Z,5.68
2019-03-23T05:51:44.101Z,5.72
2019-03-23T05:52:44.262Z,5.59
2019-03-23T05:53:46.335Z,5.62
2019-03-23T05:54:46.825Z,5.68
2019-03-23T05:55:46.357Z,5.76
2019-03-23T05:56:44.790Z,5.71
2019-03-23T05:57:46.774Z,5.71
2019-03-23T05:58:45.047Z,5.83
2019-03-23T05:59:45.268Z,5.82
2019-03-23T06:00:45.824Z,5.87
2019-03-23T06:01:45.641Z,5.84
2019-03-23T06:02:45.662Z,5.84
2019-03-23T06:03:45.817Z,5.87
2019-03-23T06:04:45.935Z,5.90
2019-03-23T06:05:46.125Z,5.86
2019-03-23T06:06:47.571Z,5.75
2019-03-23T06:07:47.734Z,5.94
2019-03-23T06:08:54.872Z,6.01
2019-03-23T06:09:47.760Z,5.99
2019-03-23T06:10:47.285Z,6.01
2019-03-23T06:11:48.370Z,6.16
2019-03-23T06:12:47.163Z,6.20
2019-03-23T06:13:47.312Z,6.16
2019-03-23T06:14:47.462Z,6.24
2019-03-23T06:15:47.643Z,6.39
2019-03-23T06:16:47.785Z,6.56
2019-03-23T06:17:47.934Z,6.57
2019-03-23T06:18:48.096Z,6.56
2019-03-23T06:19:48.245Z,6.62
2019-03-23T06:20:48.432Z,6.52
2019-03-23T06:21:48.603Z,6.52
2019-03-23T06:22:48.747Z,6.66
2019-03-23T06:23:48.907Z,6.63
2019-03-23T06:24:49.073Z,6.88
2019-03-23T06:25:49.210Z,6.89
2019-03-23T06:26:50.774Z,6.95
2019-03-23T06:27:50.917Z,6.95
2019-03-23T06:28:52.739Z,7.18
2019-03-23T06:29:51.065Z,7.11
2019-03-23T06:30:51.475Z,6.96
2019-03-23T06:31:50.246Z,6.81
2019-03-23T06:32:50.326Z,6.69
2019-03-23T06:33:50.470Z,6.97
2019-03-23T06:34:50.613Z,7.42
2019-03-23T06:35:50.804Z,7.97
2019-03-23T06:36:50.945Z,8.36
2019-03-23T06:37:51.130Z,8.70
2019-03-23T06:38:51.296Z,8.95
2019-03-23T06:39:51.537Z,9.11
2019-03-23T06:40:51.775Z,9.40
2019-03-23T06:41:51.932Z,9.44
2019-03-23T06:42:59.709Z,9.86
2019-03-23T06:43:52.153Z,10.16
2019-03-23T06:44:52.316Z,10.46
2019-03-23T06:45:52.455Z,10.87
2019-03-23T06:46:52.626Z,11.69
2019-03-23T06:47:52.755Z,12.45
2019-03-23T06:48:52.954Z,13.16
2019-03-23T06:49:53.032Z,13.87
2019-03-23T06:50:53.183Z,14.43
2019-03-23T06:51:53.379Z,14.89
2019-03-23T06:52:53.621Z,15.24
2019-03-23T06:53:53.771Z,15.54
2019-03-23T06:54:54.017Z,15.70
2019-03-23T06:55:54.230Z,15.86
2019-03-23T06:56:54.333Z,16.04
2019-03-23T06:57:54.501Z,16.35
2019-03-23T06:58:54.677Z,16.71
2019-03-23T06:59:54.826Z,16.87
2019-03-23T07:00:54.944Z,17.12
2019-03-23T07:01:55.047Z,17.01
2019-03-23T07:02:55.283Z,17.22
2019-03-23T07:03:55.373Z,17.27
2019-03-23T07:04:55.799Z,17.38
2019-03-23T07:05:55.923Z,17.36
2019-03-23T07:06:56.038Z,17.22
2019-03-23T07:07:56.387Z,17.15
2019-03-23T07:08:56.203Z,17.22
2019-03-23T07:09:56.350Z,17.16
2019-03-23T07:10:56.451Z,16.68
2019-03-23T07:11:56.561Z,16.79
2019-03-23T07:12:56.684Z,16.93
2019-03-23T07:13:56.882Z,17.01
2019-03-23T07:14:57.150Z,17.15
2019-03-23T07:15:57.302Z,16.90
2019-03-23T07:16:57.360Z,17.20
2019-03-23T07:17:57.430Z,17.27
2019-03-23T07:18:57.680Z,17.24
2019-03-23T07:19:57.900Z,17.14
2019-03-23T07:20:58.338Z,17.20
2019-03-23T07:21:58.287Z,17.45
2019-03-23T07:22:58.403Z,17.49
2019-03-23T07:23:58.531Z,17.78
2019-03-23T07:24:58.765Z,17.42
2019-03-23T07:25:58.910Z,17.46
2019-03-23T07:26:59.122Z,17.45
2019-03-23T07:27:59.248Z,17.31
2019-03-23T07:28:59.417Z,17.33
2019-03-23T07:29:59.577Z,17.24
2019-03-23T07:30:59.709Z,17.42
2019-03-23T07:32:05.661Z,17.33
2019-03-23T07:33:00.146Z,17.39
2019-03-23T07:34:00.241Z,17.54
2019-03-23T07:35:00.425Z,17.38
2019-03-23T07:36:00.704Z,17.54
2019-03-23T07:37:00.841Z,17.49
2019-03-23T07:38:00.969Z,17.36
2019-03-23T07:39:01.092Z,17.36
2019-03-23T07:40:01.306Z,17.41
2019-03-23T07:41:01.405Z,17.42
2019-03-23T07:42:01.624Z,17.34
2019-03-23T07:43:01.733Z,17.46
2019-03-23T07:44:02.010Z,17.20
2019-03-23T07:45:02.131Z,17.38
2019-03-23T07:46:02.245Z,17.36
2019-03-23T07:47:02.483Z,17.31
2019-03-23T07:48:02.600Z,17.22
2019-03-23T07:49:02.816Z,17.08
2019-03-23T07:50:02.882Z,17.15
2019-03-23T07:51:03.137Z,17.02
2019-03-23T07:52:03.239Z,17.22
2019-03-23T07:53:03.342Z,17.01
2019-03-23T07:54:03.607Z,16.90
2019-03-23T07:55:03.696Z,16.97
2019-03-23T07:56:03.887Z,16.84
2019-03-23T07:57:04.167Z,16.78
2019-03-23T07:58:04.301Z,16.78
2019-03-23T07:59:04.363Z,16.83
2019-03-23T08:00:04.501Z,17.06
2019-03-23T08:01:04.724Z,17.06
2019-03-23T08:02:04.803Z,17.19
2019-03-23T08:03:05.041Z,17.29
2019-03-23T08:04:05.142Z,17.52
2019-03-23T08:05:05.393Z,17.49
2019-03-23T08:06:05.446Z,17.70
2019-03-23T08:07:05.633Z,17.56
2019-03-23T08:08:05.792Z,17.52
2019-03-23T08:09:06.088Z,17.67
2019-03-23T08:10:06.225Z,17.52
2019-03-23T08:11:06.490Z,17.71
2019-03-23T08:12:06.551Z,17.87
2019-03-23T08:13:06.732Z,17.83
2019-03-23T08:14:06.937Z,18.04
2019-03-23T08:15:07.123Z,18.22
2019-03-23T08:16:07.435Z,18.19
2019-03-23T08:17:08.777Z,18.29
2019-03-23T08:18:07.693Z,18.50
2019-03-23T08:19:07.788Z,18.83
2019-03-23T08:20:07.922Z,18.63
2019-03-23T08:21:08.235Z,18.83
2019-03-23T08:22:08.314Z,19.00
2019-03-23T08:23:08.444Z,19.29
2019-03-23T08:24:08.545Z,19.14
2019-03-23T08:25:08.915Z,18.98
2019-03-23T08:26:09.258Z,19.24
2019-03-23T08:27:09.091Z,19.48
2019-03-23T08:28:09.660Z,19.54
2019-03-23T08:29:09.459Z,19.63
2019-03-23T08:30:09.619Z,19.74
2019-03-23T08:31:09.879Z,19.79
2019-03-23T08:32:10.007Z,19.89
2019-03-23T08:33:10.843Z,20.06
2019-03-23T08:34:10.323Z,20.18
2019-03-23T08:35:10.637Z,20.21
2019-03-23T08:36:10.633Z,20.16
2019-03-23T08:37:10.823Z,20.58
2019-03-23T08:38:10.976Z,20.74
2019-03-23T08:39:11.135Z,21.02
2019-03-23T08:40:13.227Z,21.02
2019-03-23T08:41:12.514Z,21.12
2019-03-23T08:42:11.897Z,20.93
2019-03-23T08:43:13.450Z,21.06
2019-03-23T08:44:12.662Z,20.69
2019-03-23T08:45:12.885Z,20.88
2019-03-23T08:46:12.755Z,20.93
2019-03-23T08:47:12.402Z,21.21
2019-03-23T08:48:12.613Z,21.24
2019-03-23T08:49:12.902Z,21.14
2019-03-23T08:50:13.041Z,21.06
2019-03-23T08:51:13.397Z,20.96
2019-03-23T08:52:13.496Z,21.33
2019-03-23T08:53:13.646Z,21.43
2019-03-23T08:54:13.870Z,21.40
2019-03-23T08:55:14.174Z,21.36
2019-03-23T08:56:14.154Z,21.35
2019-03-23T08:57:14.293Z,21.48
2019-03-23T08:58:14.397Z,21.30
2019-03-23T08:59:14.529Z,21.33
2019-03-23T09:00:14.767Z,21.50
2019-03-23T09:01:14.946Z,21.79
2019-03-23T09:02:15.169Z,22.00
2019-03-23T09:03:15.390Z,22.23
2019-03-23T09:04:15.531Z,22.60
2019-03-23T09:05:15.714Z,22.94
2019-03-23T09:06:15.827Z,22.90
2019-03-23T09:07:15.939Z,22.73
2019-03-23T09:08:18.458Z,22.76
2019-03-23T09:09:16.371Z,22.65
2019-03-23T09:10:16.506Z,22.63
2019-03-23T09:11:20.683Z,22.88
2019-03-23T09:12:16.845Z,22.99
2019-03-23T09:13:16.961Z,23.06
2019-03-23T09:14:17.209Z,22.73
2019-03-23T09:15:17.342Z,22.78
2019-03-23T09:16:17.452Z,22.53
2019-03-23T09:17:17.552Z,22.68
2019-03-23T09:18:18.866Z,22.78
2019-03-23T09:19:19.949Z,22.99
2019-03-23T09:20:17.968Z,23.28
2019-03-23T09:21:18.169Z,23.62
2019-03-23T09:22:18.321Z,23.56
2019-03-23T09:23:18.503Z,23.03
2019-03-23T09:24:18.710Z,23.55
2019-03-23T09:25:18.802Z,23.74
2019-03-23T09:26:18.937Z,23.62
2019-03-23T09:27:19.604Z,23.98
2019-03-23T09:28:19.237Z,24.08
2019-03-23T09:29:19.387Z,24.43
2019-03-23T09:30:19.468Z,25.04
2019-03-23T09:31:19.722Z,25.25
2019-03-23T09:32:19.863Z,25.40
2019-03-23T09:33:20.023Z,25.35
2019-03-23T09:34:20.133Z,25.72
2019-03-23T09:35:20.281Z,25.62
2019-03-23T09:36:22.856Z,25.93
2019-03-23T09:37:20.604Z,26.21
2019-03-23T09:38:20.743Z,26.02
2019-03-23T09:39:21.014Z,26.05
2019-03-23T09:40:21.039Z,26.31
2019-03-23T09:41:21.578Z,26.29
2019-03-23T09:42:21.314Z,26.37
2019-03-23T09:43:21.443Z,26.55
2019-03-23T09:44:21.592Z,26.62
2019-03-23T09:45:21.832Z,26.22
2019-03-23T09:46:21.930Z,26.29
2019-03-23T09:47:22.084Z,26.28
2019-03-23T09:48:22.213Z,26.33
2019-03-23T09:49:22.326Z,26.26
2019-03-23T09:50:22.557Z,26.00
2019-03-23T09:51:22.707Z,26.18
2019-03-23T09:52:23.023Z,25.98
2019-03-23T09:53:23.022Z,26.07
2019-03-23T09:54:23.186Z,26.26
2019-03-23T09:55:23.277Z,26.26
2019-03-23T09:56:23.401Z,26.44
2019-03-23T09:57:23.518Z,26.47
2019-03-23T09:58:23.688Z,26.22
2019-03-23T09:59:23.998Z,26.09
2019-03-23T10:00:24.022Z,26.55
2019-03-23T10:01:24.180Z,26.29
2019-03-23T10:02:24.331Z,26.52
2019-03-23T10:03:24.483Z,26.73
2019-03-23T10:04:24.647Z,26.84
2019-03-23T10:05:24.792Z,27.08
2019-03-23T10:06:25.006Z,27.30
2019-03-23T10:07:25.196Z,27.45
2019-03-23T10:08:25.352Z,27.68
2019-03-23T10:09:25.508Z,27.83
2019-03-23T10:10:25.661Z,27.77
2019-03-23T10:11:25.844Z,27.75
2019-03-23T10:12:26.018Z,27.49
2019-03-23T10:13:26.159Z,27.55
2019-03-23T10:14:26.404Z,27.65
2019-03-23T10:15:26.572Z,27.87
2019-03-23T10:16:26.789Z,27.78
2019-03-23T10:17:26.936Z,27.96
2019-03-23T10:18:27.071Z,28.08
2019-03-23T10:19:27.152Z,28.08
2019-03-23T10:20:27.366Z,28.15
2019-03-23T10:21:27.869Z,28.26
2019-03-23T10:22:27.713Z,28.45
2019-03-23T10:23:27.868Z,28.45
2019-03-23T10:24:28.097Z,28.42
2019-03-23T10:25:28.216Z,28.57
2019-03-23T10:26:29.052Z,28.41
2019-03-23T10:27:28.583Z,28.57
2019-03-23T10:28:28.944Z,28.66
2019-03-23T10:29:29.636Z,28.74
2019-03-23T10:30:30.181Z,28.91
2019-03-23T10:31:31.558Z,28.97
2019-03-23T10:32:29.518Z,29.04
2019-03-23T10:33:29.695Z,29.41
2019-03-23T10:34:29.780Z,29.61
2019-03-23T10:35:30.032Z,29.88
2019-03-23T10:36:30.494Z,30.08
2019-03-23T10:37:30.658Z,30.05
2019-03-23T10:38:31.032Z,30.19
2019-03-23T10:39:31.007Z,30.13
2019-03-23T10:40:32.704Z,29.84
2019-03-23T10:41:31.396Z,29.76
2019-03-23T10:42:31.210Z,29.56
2019-03-23T10:43:31.639Z,29.44
2019-03-23T10:44:31.865Z,29.49
2019-03-23T10:45:32.014Z,29.53
2019-03-23T10:46:32.335Z,29.82
2019-03-23T10:47:32.278Z,29.78
2019-03-23T10:48:32.646Z,29.38
2019-03-23T10:49:33.353Z,29.35
2019-03-23T10:50:32.867Z,29.22
2019-03-23T10:51:33.058Z,29.31
2019-03-23T10:52:33.239Z,29.38
2019-03-23T10:53:33.445Z,29.31
2019-03-23T10:54:33.613Z,29.78
2019-03-23T10:55:33.643Z,29.88
2019-03-23T10:56:33.821Z,30.09
2019-03-23T10:57:34.077Z,29.68
2019-03-23T10:58:34.174Z,29.34
2019-03-23T10:59:34.419Z,28.81
2019-03-23T11:00:34.592Z,28.81
2019-03-23T11:01:35.424Z,29.12
2019-03-23T11:02:34.962Z,29.24
2019-03-23T11:03:35.928Z,29.49
2019-03-23T11:04:36.857Z,29.42
2019-03-23T11:05:36.417Z,29.17
2019-03-23T11:06:37.160Z,29.13
2019-03-23T11:07:37.523Z,29.59
2019-03-23T11:08:37.721Z,30.05
2019-03-23T11:09:36.361Z,30.50
2019-03-23T11:10:41.758Z,30.73
2019-03-23T11:11:37.326Z,30.91
2019-03-23T11:12:37.193Z,30.61
2019-03-23T11:13:36.987Z,30.55
2019-03-23T11:14:38.001Z,30.87
2019-03-23T11:15:38.183Z,31.07
2019-03-23T11:16:38.250Z,31.21
2019-03-23T11:17:37.591Z,31.39
2019-03-23T11:18:37.848Z,31.40
2019-03-23T11:19:38.017Z,31.55
2019-03-23T11:20:38.632Z,31.78
2019-03-23T11:21:39.561Z,32.00
2019-03-23T11:22:38.521Z,31.18
2019-03-23T11:23:38.526Z,31.37
2019-03-23T11:24:39.229Z,31.49
2019-03-23T11:25:38.745Z,31.61
2019-03-23T11:26:39.047Z,31.70
2019-03-23T11:27:39.211Z,31.77
2019-03-23T11:28:41.094Z,31.94
2019-03-23T11:29:39.593Z,32.08
2019-03-23T11:30:39.649Z,32.18
2019-03-23T11:31:39.777Z,32.09
2019-03-23T11:32:40.059Z,31.89
2019-03-23T11:33:40.295Z,31.74
2019-03-23T11:34:40.418Z,31.51
2019-03-23T11:35:40.576Z,31.54
2019-03-23T11:36:42.158Z,31.55
2019-03-23T11:37:41.121Z,31.87
2019-03-23T11:38:40.992Z,31.92
2019-03-23T11:39:41.282Z,31.49
2019-03-23T11:40:51.644Z,31.37
2019-03-23T11:41:41.453Z,31.20
2019-03-23T11:42:49.950Z,31.00
2019-03-23T11:43:41.710Z,31.27
2019-03-23T11:44:42.014Z,31.24
2019-03-23T11:45:41.968Z,31.37
2019-03-23T11:46:42.224Z,31.49
2019-03-23T11:47:42.682Z,31.24
2019-03-23T11:48:42.883Z,31.28
2019-03-23T11:49:42.910Z,31.46
2019-03-23T11:50:43.235Z,31.49
2019-03-23T11:51:43.427Z,31.47
2019-03-23T11:52:43.479Z,31.58
2019-03-23T11:53:43.722Z,31.44
2019-03-23T11:54:44.906Z,31.58
2019-03-23T11:55:44.266Z,31.46
2019-03-23T11:56:44.419Z,31.29
2019-03-23T11:57:44.237Z,31.02
2019-03-23T11:58:44.562Z,30.62
2019-03-23T11:59:44.610Z,30.63
2019-03-23T12:00:44.780Z,30.78
2019-03-23T12:01:51.821Z,30.80
2019-03-23T12:02:45.018Z,31.05
2019-03-23T12:03:45.227Z,31.09
2019-03-23T12:04:45.417Z,30.63
2019-03-23T12:05:46.169Z,30.66
2019-03-23T12:06:46.891Z,30.81
2019-03-23T12:07:46.006Z,30.65
2019-03-23T12:08:46.363Z,30.77
2019-03-23T12:09:46.567Z,30.83
2019-03-23T12:10:46.513Z,30.87
2019-03-23T12:11:46.825Z,30.97
2019-03-23T12:12:46.994Z,31.10
2019-03-23T12:13:48.088Z,31.07
2019-03-23T12:14:47.347Z,30.68
2019-03-23T12:15:47.498Z,30.24
2019-03-23T12:16:47.421Z,30.32
2019-03-23T12:17:47.613Z,30.48
2019-03-23T12:18:47.760Z,30.53
2019-03-23T12:19:47.903Z,30.80
2019-03-23T12:20:48.024Z,30.48
2019-03-23T12:21:48.252Z,29.78
2019-03-23T12:22:48.507Z,29.63
2019-03-23T12:23:50.293Z,29.63
2019-03-23T12:24:48.769Z,29.34
2019-03-23T12:25:48.913Z,28.64
2019-03-23T12:26:49.070Z,28.14
2019-03-23T12:27:49.241Z,27.95
2019-03-23T12:28:49.342Z,27.54
2019-03-23T12:29:49.583Z,27.44
2019-03-23T12:30:49.874Z,27.30
2019-03-23T12:31:49.906Z,27.05
2019-03-23T12:32:50.159Z,26.99
2019-03-23T12:33:50.355Z,26.84
2019-03-23T12:34:50.957Z,26.70
2019-03-23T12:35:50.530Z,26.53
2019-03-23T12:36:50.933Z,26.33
2019-03-23T12:37:50.932Z,26.26
2019-03-23T12:38:52.133Z,26.21
2019-03-23T12:39:51.134Z,26.03
2019-03-23T12:40:51.334Z,25.96
2019-03-23T12:41:51.630Z,25.69
2019-03-23T12:42:51.693Z,25.28
2019-03-23T12:43:51.902Z,25.29
2019-03-23T12:44:52.121Z,25.13
2019-03-23T12:45:52.343Z,24.81
2019-03-23T12:46:52.540Z,24.89
2019-03-23T12:47:53.385Z,24.86
2019-03-23T12:48:52.981Z,24.80
2019-03-23T12:49:53.108Z,24.76
2019-03-23T12:50:53.407Z,24.69
2019-03-23T12:51:53.879Z,24.77
2019-03-23T12:52:57.372Z,24.85
2019-03-23T12:53:55.309Z,24.74
2019-03-23T12:54:54.107Z,24.77
2019-03-23T12:55:54.217Z,24.86
2019-03-23T12:56:54.445Z,24.88
2019-03-23T12:57:54.591Z,24.91
2019-03-23T12:58:54.837Z,24.85
2019-03-23T12:59:55.068Z,24.77
2019-03-23T13:00:55.360Z,24.76
2019-03-23T13:01:55.478Z,24.55
2019-03-23T13:02:55.533Z,24.54
2019-03-23T13:03:55.728Z,24.54
2019-03-23T13:04:55.820Z,24.51
2019-03-23T13:05:56.052Z,24.43
2019-03-23T13:06:56.167Z,24.30
2019-03-23T13:07:56.290Z,24.14